createdAt,value
2023-05-14T00:00:28.969Z,10.18
2023-05-14T00:02:55.757Z,10.24
2023-05-14T00:05:22.915Z,10.32
2023-05-14T00:07:49.472Z,10.44
2023-05-14T00:10:18.527Z,10.21
2023-05-14T00:12:45.389Z,10.40
2023-05-14T00:15:12.002Z,10.48
2023-05-14T00:17:39.031Z,10.60
2023-05-14T00:20:09.468Z,10.69
2023-05-14T00:22:37.145Z,10.80
2023-05-14T00:25:04.310Z,10.63
2023-05-14T00:27:30.868Z,10.73
2023-05-14T00:29:57.387Z,10.75
2023-05-14T00:32:24.654Z,10.65
2023-05-14T00:34:51.333Z,10.70
2023-05-14T00:37:17.848Z,10.73
2023-05-14T00:39:44.383Z,10.70
2023-05-14T00:42:10.960Z,10.82
2023-05-14T00:44:37.600Z,10.77
2023-05-14T00:47:04.855Z,10.75
2023-05-14T00:49:32.387Z,10.60
2023-05-14T00:52:00.966Z,10.92
2023-05-14T00:54:28.815Z,10.94
2023-05-14T00:56:56.019Z,11.08
2023-05-14T00:59:22.593Z,10.94
2023-05-14T01:01:49.259Z,11.12
2023-05-14T01:04:15.943Z,11.04
2023-05-14T01:06:48.348Z,11.07
2023-05-14T01:09:20.555Z,11.21
2023-05-14T01:12:05.939Z,10.89
2023-05-14T01:14:46.274Z,10.80
2023-05-14T01:17:14.193Z,10.90
2023-05-14T01:19:44.032Z,11.04
2023-05-14T01:22:11.756Z,11.19
2023-05-14T01:24:39.122Z,11.21
2023-05-14T01:27:28.599Z,11.20
2023-05-14T01:30:08.138Z,11.14
2023-05-14T01:32:35.606Z,11.14
2023-05-14T01:35:03.428Z,11.26
2023-05-14T01:37:30.643Z,11.22
2023-05-14T01:39:57.685Z,11.05
2023-05-14T01:42:25.087Z,10.90
2023-05-14T01:44:51.694Z,10.88
2023-05-14T01:47:18.234Z,10.90
2023-05-14T01:49:44.737Z,10.90
2023-05-14T01:52:12.110Z,10.84
2023-05-14T01:54:38.805Z,10.89
2023-05-14T01:57:05.674Z,10.97
2023-05-14T01:59:32.197Z,10.96
2023-05-14T02:01:58.855Z,11.20
2023-05-14T02:04:25.843Z,10.98
2023-05-14T02:06:52.606Z,10.80
2023-05-14T02:09:19.187Z,10.92
2023-05-14T02:11:45.765Z,10.94
2023-05-14T02:14:12.320Z,11.01
2023-05-14T02:16:39.410Z,11.00
2023-05-14T02:19:06.464Z,11.00
2023-05-14T02:21:33.029Z,11.14
2023-05-14T02:23:59.511Z,11.08
2023-05-14T02:26:26.122Z,11.12
2023-05-14T02:28:53.091Z,10.94
2023-05-14T02:31:19.695Z,10.80
2023-05-14T02:33:46.260Z,10.81
2023-05-14T02:36:12.817Z,10.78
2023-05-14T02:38:39.306Z,10.74
2023-05-14T02:41:05.931Z,10.52
2023-05-14T02:43:32.496Z,10.53
2023-05-14T02:45:59.084Z,10.71
2023-05-14T02:48:26.179Z,10.82
2023-05-14T02:50:52.876Z,10.91
2023-05-14T02:53:19.472Z,10.88
2023-05-14T02:55:46.134Z,10.76
2023-05-14T02:58:12.745Z,10.93
2023-05-14T03:00:39.306Z,10.87
2023-05-14T03:03:06.544Z,10.85
2023-05-14T03:05:33.823Z,10.85
2023-05-14T03:08:02.191Z,10.96
2023-05-14T03:10:28.703Z,10.87
2023-05-14T03:12:55.296Z,10.88
2023-05-14T03:15:21.896Z,10.91
2023-05-14T03:17:49.191Z,10.84
2023-05-14T03:20:15.856Z,10.86
2023-05-14T03:22:42.604Z,10.62
2023-05-14T03:25:09.354Z,10.61
2023-05-14T03:27:36.034Z,10.61
2023-05-14T03:30:02.592Z,10.63
2023-05-14T03:32:30.220Z,10.59
2023-05-14T03:34:57.151Z,10.56
2023-05-14T03:37:24.462Z,10.50
2023-05-14T03:39:50.991Z,10.20
2023-05-14T03:42:17.470Z,10.56
2023-05-14T03:44:44.248Z,10.61
2023-05-14T03:47:10.944Z,10.46
2023-05-14T03:49:40.482Z,10.46
2023-05-14T03:52:07.026Z,10.40
2023-05-14T03:54:33.687Z,10.56
2023-05-14T03:57:00.223Z,10.55
2023-05-14T03:59:26.961Z,10.34
2023-05-14T04:01:53.538Z,10.03
2023-05-14T04:04:20.259Z,10.20
2023-05-14T04:06:46.853Z,10.20
2023-05-14T04:09:13.525Z,10.28
2023-05-14T04:11:40.084Z,10.37
2023-05-14T04:14:06.931Z,10.42
2023-05-14T04:16:33.560Z,10.28
2023-05-14T04:19:02.513Z,10.26
2023-05-14T04:21:29.247Z,10.29
2023-05-14T04:23:55.757Z,10.24
2023-05-14T04:26:22.336Z,10.27
2023-05-14T04:28:48.921Z,10.12
2023-05-14T04:31:15.892Z,10.17
2023-05-14T04:33:42.440Z,10.13
2023-05-14T04:36:09.070Z,10.09
2023-05-14T04:38:36.493Z,10.33
2023-05-14T04:41:03.019Z,10.44
2023-05-14T04:43:29.578Z,10.46
2023-05-14T04:45:56.194Z,10.49
2023-05-14T04:48:22.751Z,10.56
2023-05-14T04:50:49.362Z,10.58
2023-05-14T04:53:15.922Z,10.68
2023-05-14T04:55:42.440Z,10.68
2023-05-14T04:58:09.198Z,10.61
2023-05-14T05:00:35.765Z,10.64
2023-05-14T05:03:02.321Z,10.66
2023-05-14T05:05:29.097Z,10.65
2023-05-14T05:07:55.706Z,10.70
2023-05-14T05:10:22.570Z,10.69
2023-05-14T05:12:49.190Z,10.71
2023-05-14T05:15:16.148Z,10.66
2023-05-14T05:17:43.917Z,10.69
2023-05-14T05:20:11.024Z,10.81
2023-05-14T05:22:37.575Z,10.84
2023-05-14T05:25:08.164Z,10.55
2023-05-14T05:27:34.987Z,10.84
2023-05-14T05:30:02.237Z,10.81
2023-05-14T05:32:29.123Z,10.90
2023-05-14T05:34:56.069Z,10.87
2023-05-14T05:37:22.675Z,11.11
2023-05-14T05:39:49.488Z,11.17
2023-05-14T05:42:16.027Z,11.21
2023-05-14T05:44:42.573Z,11.22
2023-05-14T05:47:09.189Z,11.36
2023-05-14T05:49:36.940Z,12.17
2023-05-14T05:52:04.362Z,12.54
2023-05-14T05:54:32.269Z,12.72
2023-05-14T05:56:59.425Z,13.27
2023-05-14T05:59:26.598Z,13.72
2023-05-14T06:01:53.358Z,14.26
2023-05-14T06:04:20.290Z,14.19
2023-05-14T06:06:46.807Z,14.03
2023-05-14T06:09:13.476Z,15.27
2023-05-14T06:11:40.043Z,14.09
2023-05-14T06:14:06.727Z,14.62
2023-05-14T06:16:33.429Z,14.72
2023-05-14T06:19:00.115Z,15.33
2023-05-14T06:21:26.676Z,15.62
2023-05-14T06:23:53.221Z,16.29
2023-05-14T06:26:19.716Z,16.48
2023-05-14T06:28:46.320Z,16.52
2023-05-14T06:31:13.705Z,16.37
2023-05-14T06:33:40.507Z,16.60
2023-05-14T06:36:07.969Z,16.88
2023-05-14T06:38:35.070Z,16.27
2023-05-14T06:41:01.739Z,15.24
2023-05-14T06:43:28.565Z,16.31
2023-05-14T06:45:55.068Z,16.96
2023-05-14T06:48:21.795Z,16.75
2023-05-14T06:50:49.334Z,16.62
2023-05-14T06:53:16.482Z,17.68
2023-05-14T06:55:43.290Z,17.44
2023-05-14T06:58:09.989Z,18.32
2023-05-14T07:00:36.606Z,19.01
2023-05-14T07:03:04.251Z,18.68
2023-05-14T07:05:30.924Z,17.33
2023-05-14T07:07:57.737Z,18.92
2023-05-14T07:10:25.203Z,18.01
2023-05-14T07:12:51.965Z,16.43
2023-05-14T07:15:18.600Z,17.76
2023-05-14T07:17:45.210Z,16.24
2023-05-14T07:20:12.374Z,17.09
2023-05-14T07:22:38.915Z,17.19
2023-05-14T07:25:06.399Z,17.36
2023-05-14T07:27:32.856Z,17.60
2023-05-14T07:29:59.442Z,18.68
2023-05-14T07:32:26.021Z,19.33
2023-05-14T07:34:52.597Z,19.45
2023-05-14T07:37:19.195Z,18.92
2023-05-14T07:39:45.824Z,20.75
2023-05-14T07:42:19.376Z,19.68
2023-05-14T07:44:52.026Z,19.40
2023-05-14T07:47:18.672Z,20.41
2023-05-14T07:49:45.364Z,18.81
2023-05-14T07:52:12.031Z,18.93
2023-05-14T07:54:38.753Z,20.69
2023-05-14T07:57:05.402Z,20.99
2023-05-14T07:59:32.156Z,20.74
2023-05-14T08:01:58.773Z,21.51
2023-05-14T08:04:25.489Z,21.81
2023-05-14T08:06:52.203Z,21.68
2023-05-14T08:09:18.759Z,21.48
2023-05-14T08:11:45.367Z,21.69
2023-05-14T08:14:12.001Z,21.37
2023-05-14T08:16:38.885Z,23.11
2023-05-14T08:19:05.641Z,22.17
2023-05-14T08:21:32.816Z,21.77
2023-05-14T08:23:59.864Z,21.94
2023-05-14T08:26:26.517Z,22.62
2023-05-14T08:28:54.277Z,21.89
2023-05-14T08:31:20.828Z,22.25
2023-05-14T08:33:47.472Z,23.31
2023-05-14T08:36:14.239Z,21.93
2023-05-14T08:38:42.078Z,23.09
2023-05-14T08:41:09.172Z,22.95
2023-05-14T08:43:51.009Z,22.83
2023-05-14T08:46:22.520Z,22.74
2023-05-14T08:48:57.753Z,22.52
2023-05-14T08:51:26.457Z,23.03
2023-05-14T08:53:53.389Z,23.24
2023-05-14T08:56:19.973Z,20.83
2023-05-14T08:58:46.504Z,21.53
2023-05-14T09:01:13.039Z,21.76
2023-05-14T09:03:39.873Z,20.97
2023-05-14T09:06:07.672Z,21.19
2023-05-14T09:08:36.408Z,22.78
2023-05-14T09:11:03.040Z,23.17
2023-05-14T09:13:29.563Z,21.95
2023-05-14T09:15:57.419Z,23.56
2023-05-14T09:18:24.599Z,22.57
2023-05-14T09:20:52.375Z,23.49
2023-05-14T09:23:18.996Z,23.17
2023-05-14T09:25:48.439Z,20.48
2023-05-14T09:28:17.387Z,22.42
2023-05-14T09:30:50.413Z,22.90
2023-05-14T09:33:27.885Z,22.97
2023-05-14T09:36:02.612Z,22.15
2023-05-14T09:38:33.084Z,22.98
2023-05-14T09:41:00.811Z,21.90
2023-05-14T09:43:27.393Z,23.74
2023-05-14T09:45:54.055Z,22.89
2023-05-14T09:48:22.336Z,20.16
2023-05-14T09:50:49.046Z,21.72
2023-05-14T09:53:15.831Z,22.91
2023-05-14T09:55:42.641Z,22.99
2023-05-14T09:58:09.187Z,21.30
2023-05-14T10:00:36.069Z,21.08
2023-05-14T10:03:08.282Z,21.65
2023-05-14T10:05:41.400Z,23.67
2023-05-14T10:08:26.814Z,25.67
2023-05-14T10:10:54.850Z,24.82
2023-05-14T10:13:24.560Z,25.36
2023-05-14T10:15:59.515Z,23.63
2023-05-14T10:18:29.960Z,22.95
2023-05-14T10:21:06.679Z,24.04
2023-05-14T10:23:34.710Z,21.79
2023-05-14T10:26:01.877Z,22.42
2023-05-14T10:28:28.682Z,22.79
2023-05-14T10:30:55.186Z,23.77
2023-05-14T10:33:22.295Z,22.39
2023-05-14T10:36:02.997Z,23.88
2023-05-14T10:38:32.383Z,24.51
2023-05-14T10:41:12.351Z,24.47
2023-05-14T10:43:40.753Z,23.29
2023-05-14T10:46:09.590Z,22.17
2023-05-14T10:48:39.173Z,23.64
2023-05-14T10:51:09.182Z,23.24
2023-05-14T10:53:41.460Z,24.01
2023-05-14T10:56:12.657Z,25.16
2023-05-14T10:58:41.813Z,25.96
2023-05-14T11:01:10.273Z,25.61
2023-05-14T11:03:45.545Z,22.67
2023-05-14T11:06:15.397Z,21.64
2023-05-14T11:08:42.852Z,21.56
2023-05-14T11:11:09.848Z,21.14
2023-05-14T11:13:36.462Z,20.91
2023-05-14T11:16:15.068Z,20.54
2023-05-14T11:18:53.752Z,21.29
2023-05-14T11:21:20.528Z,20.49
2023-05-14T11:23:48.241Z,20.17
2023-05-14T11:26:15.340Z,22.05
2023-05-14T11:28:41.978Z,23.89
2023-05-14T11:31:08.497Z,25.26
2023-05-14T11:33:36.173Z,22.73
2023-05-14T11:36:02.740Z,22.57
2023-05-14T11:38:29.269Z,23.22
2023-05-14T11:40:57.901Z,22.18
2023-05-14T11:43:24.892Z,23.33
2023-05-14T11:45:52.806Z,21.47
2023-05-14T11:48:20.628Z,21.83
2023-05-14T11:50:52.048Z,20.91
2023-05-14T11:53:20.158Z,21.48
2023-05-14T11:55:47.618Z,22.33
2023-05-14T11:58:14.342Z,21.63
2023-05-14T12:00:41.537Z,21.88
2023-05-14T12:03:10.218Z,23.28
2023-05-14T12:05:39.168Z,23.45
2023-05-14T12:08:28.032Z,23.40
2023-05-14T12:10:54.768Z,22.11
2023-05-14T12:13:21.810Z,22.66
2023-05-14T12:16:00.481Z,21.30
2023-05-14T12:18:28.747Z,21.05
2023-05-14T12:20:56.193Z,21.40
2023-05-14T12:23:32.957Z,23.68
2023-05-14T12:26:07.598Z,24.46
2023-05-14T12:28:37.672Z,22.47
2023-05-14T12:31:05.493Z,22.39
2023-05-14T12:33:32.222Z,22.33
2023-05-14T12:36:07.400Z,21.95
2023-05-14T12:38:41.337Z,21.28
2023-05-14T12:41:07.919Z,22.22
2023-05-14T12:43:34.492Z,22.41
2023-05-14T12:46:01.116Z,21.56
2023-05-14T12:48:27.896Z,21.04
2023-05-14T12:50:54.520Z,20.97
2023-05-14T12:53:21.046Z,22.58
2023-05-14T12:55:47.636Z,23.35
2023-05-14T12:58:14.203Z,20.97
2023-05-14T13:00:41.191Z,21.34
2023-05-14T13:03:08.113Z,21.43
2023-05-14T13:05:34.794Z,21.00
2023-05-14T13:08:04.005Z,20.90
2023-05-14T13:10:30.584Z,20.65
2023-05-14T13:12:57.884Z,20.14
2023-05-14T13:15:24.691Z,21.03
2023-05-14T13:17:51.646Z,21.62
2023-05-14T13:20:18.423Z,21.49
2023-05-14T13:22:45.129Z,20.69
2023-05-14T13:25:11.674Z,20.86
2023-05-14T13:27:38.226Z,20.76
2023-05-14T13:30:05.153Z,21.20
2023-05-14T13:32:31.735Z,21.52
2023-05-14T13:34:58.300Z,21.82
2023-05-14T13:37:25.754Z,20.54
2023-05-14T13:39:52.358Z,20.77
2023-05-14T13:42:18.939Z,21.11
2023-05-14T13:44:45.512Z,20.57
2023-05-14T13:47:12.137Z,20.55
2023-05-14T13:49:38.759Z,20.48
2023-05-14T13:52:06.247Z,20.52
2023-05-14T13:54:32.806Z,20.90
2023-05-14T13:56:59.371Z,20.32
2023-05-14T13:59:26.096Z,20.68
2023-05-14T14:01:52.803Z,20.47
2023-05-14T14:04:20.306Z,20.21
2023-05-14T14:06:46.837Z,20.16
2023-05-14T14:09:13.920Z,20.43
2023-05-14T14:11:41.412Z,20.53
2023-05-14T14:14:08.278Z,20.80
2023-05-14T14:16:35.019Z,20.63
2023-05-14T14:19:01.820Z,20.79
2023-05-14T14:21:28.717Z,20.28
2023-05-14T14:23:55.358Z,20.84
2023-05-14T14:26:22.023Z,20.55
2023-05-14T14:28:48.522Z,20.79
2023-05-14T14:31:16.987Z,20.81
2023-05-14T14:33:43.618Z,20.86
2023-05-14T14:36:10.178Z,20.75
2023-05-14T14:38:37.607Z,20.66
2023-05-14T14:41:04.391Z,20.47
2023-05-14T14:43:31.703Z,20.89
2023-05-14T14:45:58.720Z,21.21
2023-05-14T14:48:40.002Z,21.20
2023-05-14T14:51:07.856Z,21.06
2023-05-14T14:53:35.826Z,21.58
2023-05-14T14:56:02.793Z,21.75
2023-05-14T14:58:29.476Z,21.32
2023-05-14T15:00:57.253Z,21.16
2023-05-14T15:03:24.930Z,21.10
2023-05-14T15:05:53.373Z,20.57
2023-05-14T15:08:20.916Z,20.89
2023-05-14T15:10:47.587Z,20.93
2023-05-14T15:13:14.424Z,20.80
2023-05-14T15:15:42.156Z,20.55
2023-05-14T15:18:08.772Z,20.74
2023-05-14T15:20:35.517Z,20.78
2023-05-14T15:23:02.704Z,20.87
2023-05-14T15:25:29.393Z,20.97
2023-05-14T15:27:55.938Z,21.01
2023-05-14T15:30:22.679Z,21.09
2023-05-14T15:32:49.549Z,21.31
2023-05-14T15:35:16.385Z,20.80
2023-05-14T15:37:44.284Z,20.64
2023-05-14T15:40:12.131Z,20.86
2023-05-14T15:42:44.121Z,20.80
2023-05-14T15:45:12.756Z,20.32
2023-05-14T15:47:40.031Z,20.27
2023-05-14T15:50:07.647Z,20.28
2023-05-14T15:52:36.365Z,20.30
2023-05-14T15:55:05.163Z,20.18
2023-05-14T15:57:31.782Z,19.66
2023-05-14T15:59:58.275Z,19.84
2023-05-14T16:02:24.895Z,19.33
2023-05-14T16:04:51.491Z,19.13
2023-05-14T16:07:18.231Z,18.67
2023-05-14T16:09:44.788Z,18.69
2023-05-14T16:12:12.484Z,18.63
2023-05-14T16:14:41.755Z,18.61
2023-05-14T16:17:09.233Z,18.42
2023-05-14T16:19:35.851Z,18.55
2023-05-14T16:22:02.602Z,18.65
2023-05-14T16:24:29.400Z,18.53
2023-05-14T16:26:56.222Z,18.90
2023-05-14T16:29:22.925Z,19.08
2023-05-14T16:31:49.754Z,19.23
2023-05-14T16:34:16.410Z,19.11
2023-05-14T16:36:43.286Z,19.24
2023-05-14T16:39:09.990Z,19.01
2023-05-14T16:41:36.728Z,18.80
2023-05-14T16:44:03.652Z,18.70
2023-05-14T16:46:31.282Z,18.84
2023-05-14T16:48:57.991Z,18.58
2023-05-14T16:51:24.533Z,19.01
2023-05-14T16:53:52.083Z,18.85
2023-05-14T16:56:19.125Z,19.03
2023-05-14T16:58:45.992Z,19.08
2023-05-14T17:01:12.655Z,18.93
2023-05-14T17:03:39.326Z,19.06
2023-05-14T17:06:06.630Z,19.22
2023-05-14T17:08:35.417Z,19.17
2023-05-14T17:11:06.164Z,19.24
2023-05-14T17:13:33.174Z,19.20
2023-05-14T17:16:00.578Z,19.30
2023-05-14T17:18:27.495Z,18.99
2023-05-14T17:20:54.129Z,19.14
2023-05-14T17:23:20.752Z,19.01
2023-05-14T17:25:47.249Z,18.78
2023-05-14T17:28:14.154Z,18.69
2023-05-14T17:30:41.020Z,18.69
2023-05-14T17:33:07.664Z,18.36
2023-05-14T17:35:36.342Z,18.10
2023-05-14T17:38:03.645Z,17.92
2023-05-14T17:40:30.406Z,17.28
2023-05-14T17:42:56.991Z,16.47
2023-05-14T17:45:23.708Z,16.47
2023-05-14T17:47:51.450Z,16.29
2023-05-14T17:50:18.852Z,16.26
2023-05-14T17:52:48.769Z,16.25
2023-05-14T17:55:17.483Z,16.01
2023-05-14T17:57:44.061Z,15.87
2023-05-14T18:00:11.157Z,16.25
2023-05-14T18:02:38.278Z,15.75
2023-05-14T18:05:06.212Z,15.86
2023-05-14T18:07:33.011Z,15.74
2023-05-14T18:09:59.606Z,15.94
2023-05-14T18:12:27.447Z,15.65
2023-05-14T18:14:54.055Z,15.78
2023-05-14T18:17:20.915Z,15.79
2023-05-14T18:19:48.045Z,15.60
2023-05-14T18:22:15.570Z,15.55
2023-05-14T18:24:44.111Z,15.25
2023-05-14T18:27:11.085Z,15.14
2023-05-14T18:29:37.765Z,14.88
2023-05-14T18:32:04.777Z,14.82
2023-05-14T18:34:31.394Z,14.72
2023-05-14T18:36:58.385Z,13.84
2023-05-14T18:39:24.893Z,13.70
2023-05-14T18:41:52.176Z,13.63
2023-05-14T18:44:18.843Z,13.48
2023-05-14T18:46:46.045Z,13.00
2023-05-14T18:49:12.770Z,12.83
2023-05-14T18:51:39.483Z,12.98
2023-05-14T18:54:06.004Z,13.08
2023-05-14T18:56:32.614Z,12.73
2023-05-14T18:58:59.731Z,12.93
2023-05-14T19:01:26.480Z,12.91
2023-05-14T19:03:53.310Z,12.94
2023-05-14T19:06:19.979Z,13.03
2023-05-14T19:08:46.569Z,12.92
2023-05-14T19:11:13.118Z,12.84
2023-05-14T19:13:39.912Z,12.97
2023-05-14T19:16:06.676Z,12.94
2023-05-14T19:18:33.611Z,12.92
2023-05-14T19:21:00.456Z,13.02
2023-05-14T19:23:26.986Z,12.99
2023-05-14T19:25:53.502Z,13.19
2023-05-14T19:28:20.335Z,13.20
2023-05-14T19:30:47.780Z,13.13
2023-05-14T19:33:14.385Z,12.68
2023-05-14T19:35:41.014Z,13.16
2023-05-14T19:38:11.093Z,13.20
2023-05-14T19:40:37.663Z,13.18
2023-05-14T19:43:04.252Z,13.05
2023-05-14T19:45:30.807Z,13.13
2023-05-14T19:47:57.810Z,13.01
2023-05-14T19:50:24.394Z,13.17
2023-05-14T19:52:51.019Z,12.97
2023-05-14T19:55:17.591Z,12.75
2023-05-14T19:57:44.065Z,12.99
2023-05-14T20:00:11.535Z,13.05
2023-05-14T20:02:40.531Z,12.99
2023-05-14T20:05:13.521Z,12.73
2023-05-14T20:07:40.614Z,12.75
2023-05-14T20:10:07.852Z,12.73
2023-05-14T20:12:34.375Z,12.72
2023-05-14T20:15:00.956Z,12.74
2023-05-14T20:17:27.524Z,12.67
2023-05-14T20:19:54.361Z,12.38
2023-05-14T20:22:20.948Z,12.47
2023-05-14T20:24:47.734Z,12.42
2023-05-14T20:27:14.398Z,12.50
2023-05-14T20:29:41.425Z,12.65
2023-05-14T20:32:08.232Z,12.68
2023-05-14T20:34:34.794Z,12.65
2023-05-14T20:37:01.348Z,12.64
2023-05-14T20:39:28.513Z,12.60
2023-05-14T20:41:55.105Z,12.58
2023-05-14T20:44:21.670Z,12.58
2023-05-14T20:46:48.257Z,12.45
2023-05-14T20:49:14.960Z,12.47
2023-05-14T20:51:41.785Z,12.45
2023-05-14T20:54:08.524Z,12.18
2023-05-14T20:56:36.573Z,12.07
2023-05-14T20:59:03.172Z,12.20
2023-05-14T21:01:29.782Z,11.85
2023-05-14T21:03:56.470Z,12.04
2023-05-14T21:06:23.242Z,12.12
2023-05-14T21:08:50.386Z,12.16
2023-05-14T21:11:16.980Z,12.13
2023-05-14T21:13:44.568Z,12.11
2023-05-14T21:16:12.811Z,12.12
2023-05-14T21:18:39.477Z,12.18
2023-05-14T21:21:06.020Z,12.21
2023-05-14T21:23:33.078Z,12.07
2023-05-14T21:25:59.717Z,12.07
2023-05-14T21:28:26.318Z,12.19
2023-05-14T21:30:53.038Z,12.30
2023-05-14T21:33:19.633Z,12.30
2023-05-14T21:35:46.230Z,12.34
2023-05-14T21:38:12.885Z,12.23
2023-05-14T21:40:39.486Z,12.21
2023-05-14T21:43:06.095Z,12.12
2023-05-14T21:45:32.628Z,12.02
2023-05-14T21:47:59.251Z,12.03
2023-05-14T21:50:27.212Z,11.92
2023-05-14T21:52:53.935Z,11.75
2023-05-14T21:55:20.567Z,11.75
2023-05-14T21:57:47.448Z,11.83
2023-05-14T22:00:18.518Z,11.81
2023-05-14T22:02:45.139Z,11.82
2023-05-14T22:05:11.713Z,12.00
2023-05-14T22:07:38.205Z,11.94
2023-05-14T22:10:05.051Z,12.04
2023-05-14T22:12:31.596Z,12.12
2023-05-14T22:15:00.044Z,11.98
2023-05-14T22:17:28.385Z,11.79
2023-05-14T22:19:54.904Z,11.70
2023-05-14T22:22:21.502Z,11.65
2023-05-14T22:24:48.039Z,11.83
2023-05-14T22:27:14.608Z,11.98
2023-05-14T22:29:41.818Z,12.13
2023-05-14T22:32:09.714Z,12.23
2023-05-14T22:34:37.196Z,12.30
2023-05-14T22:37:04.148Z,12.25
2023-05-14T22:39:30.672Z,12.20
2023-05-14T22:41:57.330Z,12.02
2023-05-14T22:44:24.119Z,12.04
2023-05-14T22:46:50.831Z,12.08
2023-05-14T22:49:17.500Z,12.08
2023-05-14T22:51:44.095Z,12.02
2023-05-14T22:54:10.737Z,12.19
2023-05-14T22:56:39.684Z,12.21
2023-05-14T22:59:06.243Z,12.06
2023-05-14T23:01:32.850Z,12.23
2023-05-14T23:03:59.427Z,12.12
2023-05-14T23:06:26.087Z,12.28
2023-05-14T23:08:52.682Z,12.25
2023-05-14T23:11:19.269Z,12.33
2023-05-14T23:13:46.210Z,12.12
2023-05-14T23:16:12.849Z,12.27
2023-05-14T23:18:39.556Z,12.29
2023-05-14T23:21:07.210Z,12.31
2023-05-14T23:23:33.923Z,12.20
2023-05-14T23:26:00.714Z,12.10
2023-05-14T23:28:27.229Z,12.28
2023-05-14T23:30:53.789Z,12.17
2023-05-14T23:33:20.495Z,11.98
2023-05-14T23:35:48.603Z,12.01
2023-05-14T23:38:15.455Z,11.90
2023-05-14T23:40:42.060Z,11.46
2023-05-14T23:43:08.737Z,11.79
2023-05-14T23:45:35.640Z,11.85
2023-05-14T23:48:02.547Z,11.82
2023-05-14T23:50:29.154Z,11.61
2023-05-14T23:52:56.000Z,11.58
2023-05-14T23:55:22.734Z,11.54
2023-05-14T23:57:49.576Z,11.52
